Latest Weather Observations for Blackwater Airport

IDQ60801

Issued at 6:02 pm EST Sunday 2 August 2015 (issued every 30 minutes, with the page automatically refreshed every 10 minutes)

About weather observations | Map of weather stations | Latest weather observations for QLD | Other Formats
Station Details ID: 035134 Name: BLACKWATER AIRPORT Lat: -23.60 Lon: 148.81 Height: 192.95 m
Data from the previous 72 hours. | See also: Recent months at Blackwater Airport
Date/Time
EST
Temp
°C
App
Temp
°C
Dew
Point
Rel
Hum
%
Delta-T
°C
Wind Press
QNH
hPa
Press
MSL
hPa
Rain
since 9 am
mm
Dir
 
Spd
km/h
Gust
km/h
Spd
kts
Gust
kts
02/06:00pm 21.3 19.8 8.6 44 6.7 N 6 7 3 4 1019.3 1019.0 0.0
02/05:30pm 22.9 20.3 7.8 38 8.0 N 11 13 6 7 1019.1 1018.7 0.0
02/05:00pm 25.2 22.3 8.2 34 9.2 NNE 13 20 7 11 1018.9 1018.5 0.0
02/04:30pm 26.3 24.2 8.3 32 9.8 N 9 17 5 9 1018.8 1018.4 0.0
02/04:00pm 26.7 23.4 8.2 31 10.0 N 15 22 8 12 1019.0 1018.6 0.0
02/03:30pm 26.8 24.2 9.2 33 9.7 NNE 13 20 7 11 1019.1 1018.7 0.0
02/03:00pm 26.9 23.9 9.3 33 9.7 NNW 15 24 8 13 1019.3 1019.0 0.0
02/02:30pm 26.3 22.9 9.2 34 9.4 N 17 20 9 11 1019.7 1019.3 0.0
02/02:00pm 26.1 23.3 8.6 33 9.5 NNE 13 26 7 14 1020.1 1019.7 0.0
02/01:30pm 26.1 22.2 8.6 33 9.6 N 19 30 10 16 1020.5 1020.1 0.0
02/01:00pm 26.2 22.5 10.0 36 9.0 NE 20 41 11 22 1021.3 1020.9 0.0
02/12:30pm 25.0 21.6 9.3 37 8.6 NE 17 28 9 15 1022.0 1021.6 0.0
02/12:00pm 24.8 21.5 9.5 38 8.4 NNE 17 26 9 14 1022.6 1022.2 0.0
02/11:30am 23.4 20.8 10.8 45 7.0 NNE 15 26 8 14 1023.0 1022.6 0.0
02/11:00am 23.6 20.4 11.3 46 6.9 NNE 19 28 10 15 1023.5 1023.1 0.0
02/10:30am 22.0 19.5 11.1 50 6.1 N 15 24 8 13 1023.9 1023.6 0.0
02/10:00am 21.2 18.9 11.8 55 5.3 NNE 15 24 8 13 1024.2 1023.9 0.0
02/09:30am 20.7 18.1 12.1 58 4.9 NNE 17 28 9 15 1024.0 1023.7 0.0
02/09:00am 19.4 16.6 12.7 65 3.8 NE 19 24 10 13 1023.8 1023.5 0.0
02/08:30am 18.3 16.8 13.0 71 3.0 ENE 13 17 7 9 1023.6 1023.2 0.0
02/08:00am 16.4 15.6 12.8 79 2.0 ENE 9 13 5 7 1023.3 1022.9 0.0
02/07:30am 13.7 12.8 12.6 93 0.6 ENE 9 11 5 6 1023.0 1022.6 0.0
02/07:00am 10.8 9.6 9.7 93 0.6 NNE 6 7 3 4 1022.8 1022.4 0.0
02/06:30am 12.3 10.0 10.5 89 0.9 ENE 13 15 7 8 1022.3 1021.9 0.0
02/06:00am 13.0 10.5 10.9 87 1.1 ENE 15 17 8 9 1021.9 1021.5 0.0
02/05:30am 13.4 11.1 11.6 89 1.0 E 15 20 8 11 1021.7 1021.3 0.0
02/05:00am 12.7 9.9 10.1 84 1.3 E 15 17 8 9 1021.6 1021.2 0.0
02/04:30am 13.1 10.2 9.5 79 1.9 E 15 19 8 10 1021.7 1021.3 0.0
02/04:00am 13.2 10.2 9.3 77 2.0 ENE 15 19 8 10 1021.6 1021.2 0.0
02/03:30am 12.8 9.8 7.9 72 2.4 ENE 13 15 7 8 1021.8 1021.4 0.0
02/03:00am 13.5 10.1 7.5 67 3.0 E 15 17 8 9 1021.9 1021.5 0.0
02/02:30am 13.3 9.7 6.6 64 3.2 ENE 15 17 8 9 1022.0 1021.6 0.0
02/02:00am 12.8 9.2 6.6 66 3.0 ENE 15 17 8 9 1022.1 1021.7 0.0
02/01:30am 12.7 9.0 6.1 64 3.2 NE 15 17 8 9 1022.3 1021.9 0.0
02/01:00am 14.1 10.6 7.2 63 3.4 ENE 15 20 8 11 1022.5 1022.1 0.0
02/12:30am 12.7 10.2 6.5 66 3.0 NE 9 13 5 7 1022.5 1022.1 0.0
02/12:00am 13.2 11.0 6.3 63 3.3 NE 7 9 4 5 1022.7 1022.3 0.0
 
Date/Time
EST
Temp
°C
App
Temp
°C
Dew
Point
Rel
Hum
%
Delta-T
°C
Wind Press
QNH
hPa
Press
MSL
hPa
Rain
since 9 am
mm
Dir
 
Spd
km/h
Gust
km/h
Spd
kts
Gust
kts
01/11:30pm 13.9 11.5 7.0 63 3.4 ENE 9 11 5 6 1022.6 1022.2 0.0
01/11:00pm 14.4 11.9 6.7 60 3.8 ENE 9 11 5 6 1022.5 1022.1 0.0
01/10:30pm 15.1 12.2 6.7 57 4.1 ENE 11 13 6 7 1022.5 1022.1 0.0
01/10:00pm 16.8 12.9 7.2 53 4.8 ENE 17 20 9 11 1022.3 1021.9 0.0
01/09:30pm 16.4 12.9 7.1 54 4.7 E 15 20 8 11 1022.2 1021.8 0.0
01/09:00pm 17.5 13.6 7.3 51 5.1 ENE 17 20 9 11 1022.0 1021.6 0.0
01/08:30pm 17.5 14.0 7.3 51 5.2 E 15 19 8 10 1021.7 1021.3 0.0
01/08:00pm 17.6 14.3 6.5 48 5.5 E 13 17 7 9 1021.7 1021.3 0.0
01/07:30pm 18.0 14.7 6.2 46 5.9 E 13 15 7 8 1021.4 1021.0 0.0
01/07:00pm 18.8 15.5 6.3 44 6.2 E 13 15 7 8 1020.9 1020.5 0.0
01/06:30pm 19.5 16.1 5.9 41 6.8 E 13 17 7 9 1020.4 1020.0 0.0
01/06:00pm 20.2 16.5 4.3 35 7.7 ENE 13 15 7 8 1020.0 1019.6 0.0
01/05:30pm 22.5 19.6 4.5 31 8.9 ENE 9 13 5 7 1020.0 1019.6 0.0
01/05:00pm 24.3 19.9 4.6 28 9.9 NE 17 24 9 13 1019.8 1019.4 0.0
01/04:30pm 25.1 20.6 4.3 26 10.5 ENE 17 28 9 15 1019.7 1019.3 0.0
01/04:00pm 25.6 21.0 3.5 24 11.0 ENE 17 24 9 13 1019.8 1019.4 0.0
01/03:30pm 26.3 22.2 6.3 28 10.5 ENE 17 30 9 16 1019.8 1019.4 0.0
01/03:00pm 26.0 22.0 6.6 29 10.2 ENE 17 24 9 13 1020.0 1019.6 0.0
01/02:30pm 25.8 21.2 5.4 27 10.5 ENE 19 33 10 18 1020.3 1019.9 0.0
01/02:00pm 25.4 21.0 4.5 26 10.5 ENE 17 28 9 15 1020.7 1020.3 0.0
01/01:30pm 25.6 21.5 6.3 29 10.1 E 17 26 9 14 1021.2 1020.8 0.0
01/01:00pm 25.7 22.1 6.8 30 9.9 ENE 15 24 8 13 1021.6 1021.2 0.0
01/12:30pm 24.8 21.0 7.4 33 9.2 ENE 17 28 9 15 1022.2 1021.8 0.0
01/12:00pm 23.7 20.0 7.8 36 8.4 ENE 17 30 9 16 1022.8 1022.4 0.0
01/11:30am 24.0 20.8 9.9 41 7.8 ENE 17 26 9 14 1023.3 1022.9 0.0
01/11:00am 23.2 19.9 9.6 42 7.4 ENE 17 28 9 15 1023.9 1023.6 0.0
01/10:30am 21.6 19.1 9.8 47 6.4 NE 13 26 7 14 1024.3 1024.0 0.0
01/10:00am 21.4 19.1 10.6 50 5.9 ENE 13 22 7 12 1024.3 1024.0 0.0
01/09:30am 20.9 17.9 10.7 52 5.6 NNE 17 24 9 13 1024.2 1024.0 0.0
01/09:00am 20.0 17.6 11.5 58 4.7 NE 15 20 8 11 1024.1 1023.9 0.0
01/08:30am 18.7 16.2 11.0 61 4.2 ENE 15 20 8 11 1023.7 1023.5 0.0
01/08:00am 17.3 15.9 10.9 66 3.5 ENE 9 17 5 9 1023.3 1023.1 0.0
01/07:30am 14.1 12.5 11.4 84 1.5 ENE 11 13 6 7 1023.0 1022.8 0.0
01/07:00am 10.2 8.6 8.6 90 0.8 NE 7 9 4 5 1022.7 1022.5 0.0
01/06:30am 10.2 8.6 8.8 91 0.7 ENE 7 9 4 5 1022.5 1022.3 0.0
01/06:00am 8.9 8.0 6.0 82 1.3 CALM 0 0 0 0 1022.2 1021.9 0.0
01/05:30am 11.1 9.5 8.0 81 1.5 ENE 6 7 3 4 1021.9 1021.6 0.0
01/05:00am 11.6 9.5 8.1 79 1.7 ENE 9 11 5 6 1021.7 1021.4 0.0
01/04:30am 12.2 10.1 8.3 77 1.9 ENE 9 11 5 6 1021.7 1021.4 0.0
01/04:00am 12.2 9.4 8.7 79 1.8 ENE 13 15 7 8 1021.7 1021.4 0.0
01/03:30am 11.2 8.7 6.5 73 2.2 ENE 9 13 5 7 1021.7 1021.4 0.0
01/03:00am 11.8 9.7 6.5 70 2.5 ENE 7 9 4 5 1021.6 1021.3 0.0
01/02:30am 9.1 6.6 3.5 68 2.4 NE 6 9 3 5 1021.6 1021.3 0.0
01/02:00am 8.6 7.1 2.8 67 2.5 CALM 0 6 0 3 1021.7 1021.4 0.0
01/01:30am 8.6 7.0 2.4 65 2.6 CALM 0 0 0 0 1021.7 1021.4 0.0
01/01:00am 9.5 7.6 3.0 64 2.8 NNW 2 6 1 3 1021.7 1021.4 0.0
01/12:30am 9.8 6.6 3.3 64 2.8 NE 9 20 5 11 1021.9 1021.6 0.0
01/12:00am 10.8 7.7 3.4 60 3.3 SSW 9 11 5 6 1021.5 1021.2 0.0
 
Date/Time
EST
Temp
°C
App
Temp
°C
Dew
Point
Rel
Hum
%
Delta-T
°C
Wind Press
QNH
hPa
Press
MSL
hPa
Rain
since 9 am
mm
Dir
 
Spd
km/h
Gust
km/h
Spd
kts
Gust
kts
31/11:30pm 11.3 8.2 3.8 60 3.4 S 9 11 5 6 1021.7 1021.4 0.0
31/11:00pm 11.4 8.7 3.7 59 3.4 SSE 7 9 4 5 1021.8 1021.5 0.0
31/10:30pm 11.2 8.1 3.5 59 3.4 S 9 11 5 6 1021.9 1021.6 0.0
31/10:00pm 11.7 8.6 3.5 57 3.7 SSW 9 13 5 7 1022.0 1021.7 0.0
31/09:30pm 13.5 10.6 4.4 54 4.2 SSE 9 9 5 5 1021.9 1021.6 0.0
31/09:00pm 13.1 9.9 3.2 51 4.4 SSW 9 11 5 6 1021.8 1021.5 0.0
31/08:30pm 15.7 13.0 3.8 45 5.5 SSW 7 7 4 4 1021.8 1021.5 0.0
31/08:00pm 18.1 15.6 4.7 41 6.4 SSE 7 9 4 5 1021.5 1021.2 0.0
31/07:30pm 18.9 16.7 5.4 41 6.6 SSW 6 7 3 4 1021.1 1020.8 0.0
31/07:00pm 17.7 15.0 3.9 40 6.5 ENE 7 11 4 6 1020.8 1020.5 0.0
31/06:30pm 18.9 15.9 4.3 38 7.0 NE 9 11 5 6 1020.4 1020.1 0.0
31/06:00pm 21.1 19.1 4.6 34 8.1 NE 4 11 2 6 1020.1 1019.8 0.0
31/05:30pm 23.6 22.0 4.5 29 9.5 ESE 2 6 1 3 1020.0 1019.7 0.0
31/05:00pm 24.5 22.5 4.3 27 10.1 S 4 9 2 5 1019.9 1019.6 0.0
31/04:30pm 24.7 21.7 3.9 26 10.4 SE 9 17 5 9 1019.8 1019.5 0.0
31/04:00pm 24.9 22.3 4.1 26 10.4 S 7 15 4 8 1019.9 1019.6 0.0
31/03:30pm 25.6 22.7 4.7 26 10.6 WSW 9 17 5 9 1020.0 1019.7 0.0
31/03:00pm 25.0 22.1 4.7 27 10.2 ESE 9 17 5 9 1020.4 1020.1 0.0
31/02:30pm 24.8 21.5 4.5 27 10.2 SW 11 20 6 11 1020.7 1020.4 0.0
31/02:00pm 25.7 22.1 4.8 26 10.6 NNE 13 20 7 11 1021.2 1020.9 0.0
31/01:30pm 25.2 22.5 5.4 28 10.2 NNW 9 20 5 11 1021.5 1021.2 0.0
31/01:00pm 24.3 21.4 6.6 32 9.2 S 11 17 6 9 1022.1 1021.8 0.0
31/12:30pm 23.8 21.4 7.0 34 8.8 SSE 9 19 5 10 1022.8 1022.6 0.0
31/12:00pm 23.3 21.2 6.6 34 8.6 NE 7 15 4 8 1023.5 1023.3 0.0
31/11:30am 22.9 20.7 7.8 38 8.0 E 9 15 5 8 1024.0 1023.8 0.0
31/11:00am 22.3 19.8 8.1 40 7.5 NE 11 20 6 11 1024.3 1024.1 0.0
31/10:30am 21.5 19.5 8.7 44 6.8 E 9 15 5 8 1024.7 1024.5 0.0
31/10:00am 20.5 18.5 8.8 47 6.2 E 9 17 5 9 1025.0 1024.7 0.0
31/09:30am 20.3 18.0 8.9 48 6.1 ENE 11 15 6 8 1025.1 1024.8 0.0
31/09:00am 19.3 17.9 10.8 58 4.6 E 9 13 5 7 1025.2 1024.9 0.0
31/08:30am 17.0 17.4 12.5 75 2.5 SSW 2 7 1 4 1025.0 1024.7 0.0
31/08:00am 13.7 13.2 12.6 93 0.6 SSW 7 9 4 5 1024.5 1024.3 0.0
31/07:30am 11.0 9.1 10.5 97 0.3 SSW 11 11 6 6 1024.2 1024.0 0.0
31/07:00am 8.6 6.4 8.0 96 0.3 SW 9 11 5 6 1023.8 1023.6 0.0
31/06:30am 8.5 6.8 7.4 93 0.5 WSW 6 7 3 4 1023.3 1023.1 0.0
31/06:00am 9.6 9.3 8.7 94 0.4 CALM 0 0 0 0 1022.9 1022.7 0.0
31/05:30am 9.5 9.1 8.1 91 0.7 CALM 0 0 0 0 1022.7 1022.5 0.0
31/05:00am 10.1 8.7 9.0 93 0.5 NNE 6 9 3 5 1022.7 1022.5 0.0
31/04:30am 9.7 9.3 8.1 90 0.8 CALM 0 0 0 0 1022.8 1022.6 0.0
31/04:00am 10.5 10.1 8.4 87 1.0 CALM 0 0 0 0 1022.7 1022.5 0.0
31/03:30am 12.1 11.2 10.5 90 0.8 NE 6 7 3 4 1022.8 1022.6 0.0
31/03:00am 12.9 10.7 10.8 87 1.1 ENE 13 17 7 9 1022.5 1022.3 0.0
31/02:30am 12.5 10.1 10.2 86 1.2 ENE 13 15 7 8 1022.6 1022.4 0.0
31/02:00am 12.9 10.4 11.1 89 1.0 ENE 15 17 8 9 1023.0 1022.8 0.0
31/01:30am 11.6 9.3 9.0 84 1.3 ENE 11 15 6 8 1023.2 1023.0 0.0
31/01:00am 12.2 9.7 9.8 85 1.2 ENE 13 15 7 8 1023.6 1023.4 0.0
31/12:30am 12.2 10.1 9.9 86 1.2 NE 11 11 6 6 1023.9 1023.7 0.0
31/12:00am 13.3 11.6 9.9 80 1.8 ENE 9 9 5 5 1024.1 1023.9 0.0
 
Date/Time
EST
Temp
°C
App
Temp
°C
Dew
Point
Rel
Hum
%
Delta-T
°C
Wind Press
QNH
hPa
Press
MSL
hPa
Rain
since 9 am
mm
Dir
 
Spd
km/h
Gust
km/h
Spd
kts
Gust
kts
30/11:30pm 13.9 11.9 10.1 78 2.0 E 11 13 6 7 1024.3 1024.1 0.0
30/11:00pm 14.4 12.1 10.4 77 2.1 E 13 15 7 8 1024.2 1024.0 0.0
30/10:30pm 13.8 11.6 9.5 75 2.2 E 11 13 6 7 1024.2 1024.0 0.0
30/10:00pm 14.0 12.2 9.6 75 2.3 E 9 11 5 6 1024.3 1024.1 0.0
30/09:30pm 13.6 11.8 8.0 69 2.8 SE 7 9 4 5 1024.2 1024.0 0.0
30/09:00pm 13.9 12.5 7.4 65 3.2 ESE 4 6 2 3 1024.2 1024.0 0.0
30/08:30pm 15.2 13.3 9.1 67 3.2 E 9 9 5 5 1024.0 1023.8 0.0
30/08:00pm 14.9 14.4 7.9 63 3.5 CALM 0 0 0 0 1023.8 1023.6 0.0
30/07:30pm 15.6 13.6 8.6 63 3.6 NE 9 11 5 6 1023.5 1023.3 0.0
30/07:00pm 16.1 14.0 8.3 60 4.0 NNE 9 11 5 6 1023.4 1023.2 0.0
30/06:30pm 16.8 14.7 8.2 57 4.4 NNE 9 11 5 6 1023.1 1022.9 0.0

Other Formats:

Comma delimited format used in spreadsheet applications
http://www.bom.gov.au/fwo/IDQ60801/IDQ60801.94398.axf

JavaScript Object Notation format (JSON) in row-major order
http://www.bom.gov.au/fwo/IDQ60801/IDQ60801.94398.json